createdAt,value
2022-12-23T00:00:15.501Z,72.10
2022-12-23T00:03:03.747Z,65.90
2022-12-23T00:05:37.982Z,69.90
2022-12-23T00:08:07.558Z,72.80
2022-12-23T00:10:39.813Z,70.80
2022-12-23T00:13:27.755Z,70.60
2022-12-23T00:16:09.459Z,93.60
2022-12-23T00:18:38.359Z,81.50
2022-12-23T00:21:13.161Z,87.10
2022-12-23T00:23:44.208Z,74.80
2022-12-23T00:26:21.121Z,76.40
2022-12-23T00:28:49.915Z,76.20
2022-12-23T00:31:19.494Z,71.20
2022-12-23T00:33:50.459Z,64.30
2022-12-23T00:36:28.056Z,68.60
2022-12-23T00:39:17.002Z,71.30
2022-12-23T00:42:04.542Z,53.10
2022-12-23T00:44:32.964Z,67.60
2022-12-23T00:47:01.053Z,59.60
2022-12-23T00:49:44.178Z,65.90
2022-12-23T00:52:15.676Z,77.30
2022-12-23T00:54:43.925Z,78.10
2022-12-23T00:57:12.341Z,71.10
2022-12-23T00:59:40.481Z,69.40
2022-12-23T01:02:30.741Z,73.10
2022-12-23T01:05:18.113Z,74.40
2022-12-23T01:07:46.111Z,87.00
2022-12-23T01:10:14.377Z,83.70
2022-12-23T01:12:42.521Z,79.60
2022-12-23T01:15:11.021Z,103.70
2022-12-23T01:17:39.023Z,95.20
2022-12-23T01:20:07.963Z,94.30
2022-12-23T01:22:36.107Z,89.80
2022-12-23T01:25:04.831Z,70.40
2022-12-23T01:27:33.009Z,102.10
2022-12-23T01:30:01.073Z,96.80
2022-12-23T01:32:29.144Z,94.70
2022-12-23T01:34:57.168Z,80.60
2022-12-23T01:37:25.182Z,71.80
2022-12-23T01:39:53.157Z,64.10
2022-12-23T01:42:40.036Z,68.10
2022-12-23T01:45:17.447Z,67.20
2022-12-23T01:48:21.276Z,73.70
2022-12-23T01:50:54.573Z,59.60
2022-12-23T01:53:25.827Z,64.10
2022-12-23T01:56:05.505Z,66.80
2022-12-23T01:58:56.786Z,60.30
2022-12-23T02:01:45.292Z,61.30
2022-12-23T02:04:18.862Z,58.00
2022-12-23T02:07:08.005Z,64.60
2022-12-23T02:09:38.764Z,56.70
2022-12-23T02:12:37.757Z,45.70
2022-12-23T02:15:53.852Z,46.70
2022-12-23T02:18:24.610Z,55.20
2022-12-23T02:21:12.648Z,55.90
2022-12-23T02:24:02.832Z,56.60
2022-12-23T02:26:46.247Z,59.00
2022-12-23T02:29:47.057Z,46.70
2022-12-23T02:32:14.956Z,60.70
2022-12-23T02:34:50.673Z,59.40
2022-12-23T02:37:21.393Z,52.40
2022-12-23T02:40:30.960Z,70.40
2022-12-23T02:43:16.554Z,66.10
2022-12-23T02:46:09.474Z,61.60
2022-12-23T02:48:41.835Z,55.80
2022-12-23T02:51:14.427Z,61.30
2022-12-23T02:53:51.177Z,64.50
2022-12-23T02:56:22.860Z,39.10
2022-12-23T02:58:59.137Z,54.70
2022-12-23T03:01:32.185Z,59.30
2022-12-23T03:04:00.594Z,56.70
2022-12-23T03:06:36.087Z,53.00
2022-12-23T03:09:04.551Z,53.40
2022-12-23T03:11:54.848Z,46.90
2022-12-23T03:14:51.810Z,42.20
2022-12-23T03:17:49.275Z,35.50
2022-12-23T03:20:56.367Z,48.10
2022-12-23T03:23:30.889Z,39.60
2022-12-23T03:25:59.212Z,49.70
2022-12-23T03:28:48.553Z,51.30
2022-12-23T03:31:20.386Z,52.50
2022-12-23T03:34:11.325Z,49.80
2022-12-23T03:36:48.262Z,39.50
2022-12-23T03:39:20.429Z,47.70
2022-12-23T03:41:54.264Z,47.80
2022-12-23T03:44:30.111Z,51.10
2022-12-23T03:47:17.211Z,45.30
2022-12-23T03:49:54.103Z,58.00
2022-12-23T03:52:28.472Z,49.90
2022-12-23T03:55:02.038Z,52.80
2022-12-23T03:57:59.552Z,55.30
2022-12-23T04:00:30.933Z,47.60
2022-12-23T04:03:21.423Z,46.60
2022-12-23T04:06:00.100Z,44.00
2022-12-23T04:08:35.268Z,45.30
2022-12-23T04:11:04.438Z,62.50
2022-12-23T04:13:32.930Z,50.70
2022-12-23T04:16:02.586Z,44.20
2022-12-23T04:18:30.684Z,50.10
2022-12-23T04:20:59.260Z,96.40
2022-12-23T04:23:27.487Z,87.50
2022-12-23T04:25:55.583Z,85.00
2022-12-23T04:28:23.666Z,72.70
2022-12-23T04:30:51.750Z,53.00
2022-12-23T04:33:19.859Z,53.00
2022-12-23T04:35:47.909Z,60.80
2022-12-23T04:38:16.192Z,60.60
2022-12-23T04:40:47.321Z,53.20
2022-12-23T04:43:15.385Z,62.50
2022-12-23T04:45:43.411Z,63.60
2022-12-23T04:48:11.477Z,53.90
2022-12-23T04:50:39.601Z,55.20
2022-12-23T04:53:07.695Z,53.00
2022-12-23T04:55:35.782Z,47.00
2022-12-23T04:58:03.958Z,41.70
2022-12-23T05:00:37.306Z,48.20
2022-12-23T05:03:07.675Z,36.40
2022-12-23T05:05:35.911Z,53.50
2022-12-23T05:08:05.555Z,46.30
2022-12-23T05:10:33.532Z,50.70
2022-12-23T05:13:01.704Z,44.50
2022-12-23T05:15:33.147Z,47.50
2022-12-23T05:18:01.186Z,47.90
2022-12-23T05:20:29.413Z,41.80
2022-12-23T05:22:57.594Z,43.70
2022-12-23T05:25:25.777Z,41.70
2022-12-23T05:27:53.878Z,40.90
2022-12-23T05:30:21.949Z,37.60
2022-12-23T05:32:54.904Z,64.60
2022-12-23T05:35:25.149Z,64.30
2022-12-23T05:37:53.943Z,61.80
2022-12-23T05:42:55.727Z,79.50
2022-12-23T05:45:24.119Z,65.70
2022-12-23T05:47:52.109Z,61.60
2022-12-23T05:50:20.273Z,53.20
2022-12-23T05:52:50.083Z,72.90
2022-12-23T05:55:18.297Z,82.60
2022-12-23T05:57:46.362Z,78.20
2022-12-23T06:00:16.259Z,96.40
2022-12-23T06:02:49.938Z,66.60
2022-12-23T06:05:22.383Z,81.10
2022-12-23T06:10:18.599Z,87.40
2022-12-23T06:12:46.720Z,137.40
2022-12-23T06:15:15.889Z,181.00
2022-12-23T06:17:44.059Z,174.10
2022-12-23T06:20:19.706Z,147.40
2022-12-23T06:22:49.036Z,137.60
2022-12-23T06:25:17.308Z,94.70
2022-12-23T06:27:45.594Z,83.30
2022-12-23T06:30:14.882Z,92.30
2022-12-23T06:32:43.341Z,121.50
2022-12-23T06:35:11.522Z,118.10
2022-12-23T06:37:39.653Z,97.70
2022-12-23T06:40:08.636Z,89.90
2022-12-23T06:42:36.797Z,107.60
2022-12-23T06:45:05.560Z,117.80
2022-12-23T06:47:33.661Z,160.70
2022-12-23T06:50:02.004Z,111.70
2022-12-23T06:52:30.235Z,103.50
2022-12-23T06:54:58.302Z,85.40
2022-12-23T06:57:26.489Z,61.70
2022-12-23T06:59:54.694Z,72.90
2022-12-23T07:02:22.917Z,67.70
2022-12-23T07:04:51.109Z,64.20
2022-12-23T07:07:19.178Z,69.90
2022-12-23T07:09:47.252Z,88.80
2022-12-23T07:12:15.847Z,79.20
2022-12-23T07:14:44.222Z,70.90
2022-12-23T07:17:12.440Z,72.40
2022-12-23T07:19:41.986Z,64.70
2022-12-23T07:22:13.143Z,95.40
2022-12-23T07:24:41.228Z,108.50
2022-12-23T07:27:09.650Z,77.40
2022-12-23T07:29:38.077Z,68.70
2022-12-23T07:32:06.490Z,71.60
2022-12-23T07:34:34.938Z,91.80
2022-12-23T07:37:03.226Z,120.90
2022-12-23T07:39:31.210Z,102.20
2022-12-23T07:42:16.968Z,90.10
2022-12-23T07:44:47.930Z,107.40
2022-12-23T07:47:16.724Z,78.40
2022-12-23T07:52:13.273Z,98.80
2022-12-23T07:54:41.915Z,67.30
2022-12-23T07:57:10.355Z,57.80
2022-12-23T07:59:38.605Z,66.80
2022-12-23T08:02:07.009Z,62.20
2022-12-23T08:04:37.460Z,54.10
2022-12-23T08:07:09.532Z,59.40
2022-12-23T08:09:37.753Z,56.10
2022-12-23T08:12:06.539Z,65.90
2022-12-23T08:14:34.696Z,62.20
2022-12-23T08:17:03.005Z,73.40
2022-12-23T08:19:31.487Z,68.80
2022-12-23T08:22:00.153Z,88.30
2022-12-23T08:24:28.349Z,58.00
2022-12-23T08:26:57.414Z,57.10
2022-12-23T08:29:27.229Z,56.50
2022-12-23T08:31:57.112Z,54.20
2022-12-23T08:34:25.440Z,57.60
2022-12-23T08:36:53.728Z,44.60
2022-12-23T08:39:21.793Z,60.10
2022-12-23T08:41:49.873Z,55.90
2022-12-23T08:44:18.197Z,58.80
2022-12-23T08:46:46.812Z,72.00
2022-12-23T08:49:15.582Z,73.60
2022-12-23T08:51:43.768Z,67.50
2022-12-23T08:54:12.684Z,56.90
2022-12-23T08:56:43.005Z,46.10
2022-12-23T08:59:19.094Z,50.10
2022-12-23T09:01:48.552Z,54.40
2022-12-23T09:04:17.251Z,50.80
2022-12-23T09:06:45.668Z,47.10
2022-12-23T09:09:16.164Z,46.00
2022-12-23T09:11:45.026Z,137.70
2022-12-23T09:16:41.392Z,71.10
2022-12-23T09:19:09.702Z,99.10
2022-12-23T09:21:37.919Z,78.40
2022-12-23T09:24:06.613Z,60.00
2022-12-23T09:26:35.241Z,63.40
2022-12-23T09:29:03.357Z,54.40
2022-12-23T09:31:36.868Z,51.30
2022-12-23T09:34:06.504Z,47.10
2022-12-23T09:41:44.033Z,76.10
2022-12-23T09:44:14.757Z,76.10
2022-12-23T09:46:51.688Z,95.70
2022-12-23T09:49:22.565Z,52.30
2022-12-23T09:51:54.291Z,46.10
2022-12-23T09:54:25.373Z,43.10
2022-12-23T09:57:03.401Z,44.40
2022-12-23T09:59:51.387Z,47.70
2022-12-23T10:02:44.099Z,44.00
2022-12-23T10:05:30.148Z,50.00
2022-12-23T10:08:10.186Z,50.30
2022-12-23T10:10:47.094Z,44.90
2022-12-23T10:13:27.906Z,41.10
2022-12-23T10:16:01.713Z,52.60
2022-12-23T10:18:51.250Z,51.50
2022-12-23T10:21:47.635Z,51.10
2022-12-23T10:24:18.932Z,44.00
2022-12-23T10:26:53.872Z,57.20
2022-12-23T10:29:30.483Z,61.70
2022-12-23T10:32:17.473Z,64.00
2022-12-23T10:35:01.177Z,56.30
2022-12-23T10:37:45.914Z,58.00
2022-12-23T10:40:45.590Z,62.70
2022-12-23T10:43:31.282Z,60.30
2022-12-23T10:45:59.473Z,85.10
2022-12-23T10:48:36.831Z,121.50
2022-12-23T10:51:15.284Z,61.10
2022-12-23T10:53:43.464Z,178.40
2022-12-23T10:56:12.823Z,117.00
2022-12-23T10:58:43.909Z,161.10
2022-12-23T11:01:24.073Z,95.20
2022-12-23T11:04:05.979Z,188.10
2022-12-23T11:06:40.486Z,452.90
2022-12-23T11:09:19.535Z,178.30
2022-12-23T11:12:02.379Z,154.90
2022-12-23T11:14:42.298Z,73.10
2022-12-23T11:17:28.082Z,54.90
2022-12-23T11:20:26.622Z,52.60
2022-12-23T11:23:02.500Z,58.40
2022-12-23T11:25:37.021Z,43.00
2022-12-23T11:28:11.273Z,33.30
2022-12-23T11:31:12.401Z,25.90
2022-12-23T11:33:57.776Z,35.00
2022-12-23T11:36:29.606Z,34.40
2022-12-23T11:39:10.146Z,35.10
2022-12-23T11:41:47.927Z,32.90
2022-12-23T11:44:22.178Z,46.40
2022-12-23T11:46:51.131Z,36.80
2022-12-23T11:49:31.827Z,46.00
2022-12-23T11:52:10.873Z,39.10
2022-12-23T11:54:40.094Z,64.80
2022-12-23T11:57:18.001Z,46.40
2022-12-23T11:59:51.437Z,47.60
2022-12-23T12:02:34.767Z,64.60
2022-12-23T12:05:28.780Z,53.80
2022-12-23T12:08:13.879Z,46.80
2022-12-23T12:10:42.952Z,33.20
2022-12-23T12:13:36.992Z,89.60
2022-12-23T12:16:32.708Z,67.00
2022-12-23T12:19:20.063Z,65.90
2022-12-23T12:21:51.839Z,109.80
2022-12-23T12:24:54.643Z,100.60
2022-12-23T12:27:34.987Z,89.30
2022-12-23T12:30:08.864Z,75.70
2022-12-23T12:32:53.494Z,59.90
2022-12-23T12:35:44.484Z,49.90
2022-12-23T12:38:24.958Z,50.70
2022-12-23T12:40:58.984Z,49.70
2022-12-23T12:43:37.905Z,45.70
2022-12-23T12:46:43.315Z,39.20
2022-12-23T12:49:11.558Z,46.50
2022-12-23T12:51:49.326Z,58.40
2022-12-23T12:54:32.766Z,70.60
2022-12-23T12:57:02.444Z,62.20
2022-12-23T12:59:37.048Z,88.00
2022-12-23T13:02:27.742Z,79.10
2022-12-23T13:05:08.246Z,75.60
2022-12-23T13:07:51.782Z,58.60
2022-12-23T13:10:45.516Z,81.70
2022-12-23T13:13:32.303Z,97.50
2022-12-23T13:16:11.052Z,81.80
2022-12-23T13:22:01.736Z,79.00
2022-12-23T13:24:43.812Z,96.50
2022-12-23T13:27:16.191Z,68.30
2022-12-23T13:29:54.598Z,67.20
2022-12-23T13:32:37.797Z,72.40
2022-12-23T13:35:48.316Z,78.80
2022-12-23T13:38:39.342Z,78.00
2022-12-23T13:41:59.868Z,69.60
2022-12-23T13:44:34.453Z,77.00
2022-12-23T13:47:29.073Z,68.60
2022-12-23T13:50:18.888Z,52.90
2022-12-23T13:53:08.205Z,52.80
2022-12-23T13:56:09.015Z,43.30
2022-12-23T13:58:39.262Z,56.00
2022-12-23T14:01:10.308Z,52.30
2022-12-23T14:03:40.108Z,67.30
2022-12-23T14:06:40.851Z,55.80
2022-12-23T14:09:14.688Z,57.10
2022-12-23T14:11:45.257Z,44.80
2022-12-23T14:14:23.585Z,77.70
2022-12-23T14:17:16.428Z,61.90
2022-12-23T14:20:13.765Z,51.50
2022-12-23T14:23:17.295Z,46.60
2022-12-23T14:26:18.717Z,54.20
2022-12-23T14:28:56.475Z,59.50
2022-12-23T14:31:34.668Z,75.30
2022-12-23T14:34:33.278Z,72.60
2022-12-23T14:37:35.359Z,81.00
2022-12-23T14:40:38.101Z,93.40
2022-12-23T14:43:26.997Z,123.10
2022-12-23T14:46:01.022Z,120.10
2022-12-23T14:48:44.641Z,93.30
2022-12-23T14:51:33.351Z,79.90
2022-12-23T14:54:02.142Z,82.40
2022-12-23T14:56:39.522Z,80.70
2022-12-23T14:59:07.740Z,81.70
2022-12-23T15:01:42.379Z,126.60
2022-12-23T15:04:24.371Z,114.50
2022-12-23T15:07:06.266Z,115.90
2022-12-23T15:09:54.445Z,101.30
2022-12-23T15:12:35.192Z,95.20
2022-12-23T15:15:17.929Z,97.10
2022-12-23T15:17:47.135Z,103.30
2022-12-23T15:20:24.527Z,92.90
2022-12-23T15:22:52.985Z,63.90
2022-12-23T15:25:27.353Z,89.30
2022-12-23T15:28:01.458Z,104.20
2022-12-23T15:30:47.263Z,87.30
2022-12-23T15:34:00.803Z,75.10
2022-12-23T15:36:10.534Z,84.90
2022-12-23T15:38:39.722Z,83.40
2022-12-23T15:41:16.312Z,108.90
2022-12-23T15:43:44.957Z,109.30
2022-12-23T15:46:29.027Z,139.20
2022-12-23T15:48:58.508Z,120.60
2022-12-23T15:52:05.846Z,95.80
2022-12-23T15:54:27.761Z,74.60
2022-12-23T15:56:59.224Z,101.50
2022-12-23T15:59:37.572Z,85.10
2022-12-23T16:05:30.691Z,69.30
2022-12-23T16:08:31.788Z,79.20
2022-12-23T16:11:13.952Z,71.10
2022-12-23T16:14:16.793Z,69.80
2022-12-23T16:16:44.853Z,57.60
2022-12-23T16:19:55.063Z,73.10
2022-12-23T16:22:33.529Z,52.90
2022-12-23T16:25:15.355Z,83.80
2022-12-23T16:27:49.821Z,64.30
2022-12-23T16:30:21.338Z,82.20
2022-12-23T16:32:49.365Z,71.30
2022-12-23T16:35:31.961Z,71.90
2022-12-23T16:38:20.521Z,81.60
2022-12-23T16:40:51.039Z,136.10
2022-12-23T16:43:20.965Z,143.40
2022-12-23T16:45:57.032Z,128.40
2022-12-23T16:48:30.579Z,119.90
2022-12-23T16:51:00.514Z,96.50
2022-12-23T16:53:28.604Z,94.60
2022-12-23T16:56:00.269Z,79.80
2022-12-23T16:58:29.984Z,95.50
2022-12-23T17:03:26.326Z,119.40
2022-12-23T17:05:54.494Z,128.70
2022-12-23T17:08:22.530Z,93.10
2022-12-23T17:10:51.017Z,97.70
2022-12-23T17:13:19.019Z,80.50
2022-12-23T17:15:47.188Z,100.10
2022-12-23T17:18:17.570Z,107.70
2022-12-23T17:20:47.556Z,109.30
2022-12-23T17:23:26.414Z,123.00
2022-12-23T17:25:54.517Z,127.20
2022-12-23T17:28:22.945Z,127.90
2022-12-23T17:30:54.435Z,131.10
2022-12-23T17:33:26.850Z,119.30
2022-12-23T17:35:56.032Z,123.00
2022-12-23T17:38:25.379Z,133.10
2022-12-23T17:40:55.268Z,122.60
2022-12-23T17:43:23.533Z,97.50
2022-12-23T17:45:51.662Z,91.30
2022-12-23T17:48:24.224Z,103.80
2022-12-23T17:50:56.220Z,94.00
2022-12-23T17:53:24.373Z,74.30
2022-12-23T17:55:52.469Z,66.80
2022-12-23T17:58:21.269Z,85.10
2022-12-23T18:00:49.514Z,74.10
2022-12-23T18:03:23.450Z,207.80
2022-12-23T18:06:00.908Z,67.40
2022-12-23T18:08:30.036Z,81.20
2022-12-23T18:10:59.593Z,82.70
2022-12-23T18:13:27.764Z,84.40
2022-12-23T18:15:55.872Z,98.90
2022-12-23T18:18:31.229Z,112.00
2022-12-23T18:21:06.178Z,132.40
2022-12-23T18:23:37.173Z,97.90
2022-12-23T18:26:05.258Z,102.20
2022-12-23T18:28:33.439Z,166.30
2022-12-23T18:31:01.567Z,107.80
2022-12-23T18:33:30.511Z,119.60
2022-12-23T18:35:58.660Z,121.80
2022-12-23T18:38:26.743Z,137.50
2022-12-23T18:40:56.724Z,112.30
2022-12-23T18:43:26.664Z,135.60
2022-12-23T18:45:54.777Z,154.90
2022-12-23T18:48:22.860Z,159.00
2022-12-23T18:50:51.147Z,154.30
2022-12-23T18:53:24.520Z,118.50
2022-12-23T18:55:54.620Z,108.00
2022-12-23T18:58:23.447Z,107.60
2022-12-23T19:00:53.261Z,110.10
2022-12-23T19:03:30.574Z,111.00
2022-12-23T19:06:06.737Z,106.10
2022-12-23T19:08:37.060Z,110.80
2022-12-23T19:11:18.398Z,101.10
2022-12-23T19:13:46.928Z,96.60
2022-12-23T19:16:20.648Z,109.30
2022-12-23T19:18:49.706Z,113.20
2022-12-23T19:21:18.717Z,112.50
2022-12-23T19:23:46.709Z,129.10
2022-12-23T19:26:15.338Z,104.80
2022-12-23T19:28:43.868Z,125.30
2022-12-23T19:31:14.343Z,150.70
2022-12-23T19:33:46.456Z,166.90
2022-12-23T19:36:17.556Z,192.40
2022-12-23T19:38:46.034Z,180.70
2022-12-23T19:41:14.015Z,187.40
2022-12-23T19:43:44.616Z,147.70
2022-12-23T19:46:14.340Z,186.50
2022-12-23T19:48:42.883Z,197.90
2022-12-23T19:51:13.565Z,182.00
2022-12-23T19:53:42.225Z,176.50
2022-12-23T19:56:15.503Z,173.00
2022-12-23T19:58:44.348Z,163.90
2022-12-23T20:01:15.538Z,138.40
2022-12-23T20:03:45.378Z,152.20
2022-12-23T20:06:16.750Z,115.00
2022-12-23T20:08:45.550Z,128.60
2022-12-23T20:11:17.221Z,163.40
2022-12-23T20:13:45.915Z,191.00
2022-12-23T20:16:14.025Z,165.00
2022-12-23T20:18:42.364Z,140.60
2022-12-23T20:21:10.583Z,173.30
2022-12-23T20:23:38.814Z,147.10
2022-12-23T20:26:06.977Z,120.90
2022-12-23T20:28:35.138Z,94.80
2022-12-23T20:31:07.770Z,83.80
2022-12-23T20:33:38.241Z,93.80
2022-12-23T20:36:07.449Z,87.20
2022-12-23T20:38:37.252Z,68.20
2022-12-23T20:41:06.636Z,91.50
2022-12-23T20:43:35.353Z,103.60
2022-12-23T20:46:05.732Z,90.70
2022-12-23T20:48:34.911Z,107.60
2022-12-23T20:51:13.001Z,111.10
2022-12-23T20:53:41.838Z,131.60
2022-12-23T20:58:59.336Z,87.40
2022-12-23T21:01:37.983Z,102.60
2022-12-23T21:06:45.200Z,105.80
2022-12-23T21:09:14.976Z,92.30
2022-12-23T21:11:46.189Z,96.50
2022-12-23T21:14:15.731Z,103.00
2022-12-23T21:16:43.952Z,80.60
2022-12-23T21:19:21.826Z,101.70
2022-12-23T21:21:51.335Z,114.10
2022-12-23T21:24:20.519Z,110.10
2022-12-23T21:26:56.525Z,111.40
2022-12-23T21:29:25.817Z,94.50
2022-12-23T21:31:55.322Z,100.60
2022-12-23T21:34:23.980Z,93.50
2022-12-23T21:36:52.113Z,79.60
2022-12-23T21:39:20.406Z,88.10
2022-12-23T21:41:51.236Z,127.10
2022-12-23T21:44:19.320Z,138.20
2022-12-23T21:46:50.637Z,139.00
2022-12-23T21:49:20.146Z,109.40
2022-12-23T21:51:48.164Z,111.20
2022-12-23T21:54:16.172Z,95.20
2022-12-23T21:56:44.371Z,73.30
2022-12-23T21:59:14.600Z,89.30
2022-12-23T22:01:43.694Z,76.90
2022-12-23T22:04:12.711Z,51.30
2022-12-23T22:06:43.928Z,72.00
2022-12-23T22:09:16.036Z,92.10
2022-12-23T22:11:44.693Z,73.80
2022-12-23T22:14:15.336Z,80.70
2022-12-23T22:16:43.537Z,88.30
2022-12-23T22:19:12.298Z,94.80
2022-12-23T22:21:42.998Z,89.40
2022-12-23T22:24:11.743Z,85.10
2022-12-23T22:26:40.933Z,96.60
2022-12-23T22:29:10.841Z,87.50
2022-12-23T22:31:59.167Z,129.20
2022-12-23T22:34:27.228Z,120.10
2022-12-23T22:36:55.217Z,132.90
2022-12-23T22:39:23.203Z,128.70
2022-12-23T22:41:51.668Z,79.70
2022-12-23T22:44:20.832Z,68.00
2022-12-23T22:46:49.314Z,68.70
2022-12-23T22:49:17.760Z,58.00
2022-12-23T22:51:46.352Z,68.80
2022-12-23T22:54:14.948Z,65.60
2022-12-23T22:56:43.277Z,88.30
2022-12-23T22:59:23.044Z,77.70
2022-12-23T23:01:54.056Z,72.20
2022-12-23T23:04:22.924Z,93.70
2022-12-23T23:09:20.764Z,72.80
2022-12-23T23:11:50.206Z,88.10
2022-12-23T23:14:18.893Z,95.10
2022-12-23T23:19:16.543Z,92.60
2022-12-23T23:21:44.754Z,103.50
2022-12-23T23:24:13.147Z,99.60
2022-12-23T23:26:41.265Z,91.10
2022-12-23T23:29:09.329Z,100.80
2022-12-23T23:31:42.407Z,98.10
2022-12-23T23:34:13.251Z,82.20
2022-12-23T23:36:41.993Z,116.60
2022-12-23T23:39:12.408Z,109.40
2022-12-23T23:41:41.163Z,105.20
2022-12-23T23:46:37.922Z,85.60
2022-12-23T23:49:06.403Z,74.10
2022-12-23T23:51:34.492Z,75.50
2022-12-23T23:54:02.674Z,78.50
2022-12-23T23:56:37.496Z,61.10
2022-12-23T23:59:08.040Z,62.60
